Time,TemperatureF,DewpointF,PressureIn,WindDirection,WindDirectionDegrees,WindSpeedMPH,WindSpeedGustMPH,Humidity,HourlyPrecipIn,Conditions,Clouds,dailyrainin,SoftwareType,DateUTC
2013-07-11 00:00:00,66.9,58.7,30.01,NNW,330,0.0,0.0,75,0.00,,CLR,0.00,VWS V14.01,2013-07-11 05:00:00,
2013-07-11 00:01:00,66.9,58.7,30.01,NNW,330,0.0,0.0,75,0.00,,CLR,0.00,VWS V14.01,2013-07-11 05:01:00,
2013-07-11 00:06:00,66.7,58.9,30.01,NNW,330,0.0,0.0,76,0.00,,CLR,0.00,VWS V14.01,2013-07-11 05:06:00,
2013-07-11 00:11:00,66.4,58.6,30.01,NNW,330,0.0,0.0,76,0.00,,CLR,0.00,VWS V14.01,2013-07-11 05:11:00,
2013-07-11 00:16:00,66.3,58.9,30.01,NNW,330,0.0,0.0,77,0.00,,CLR,0.00,VWS V14.01,2013-07-11 05:16:00,
2013-07-11 00:21:00,66.1,58.7,30.01,NNW,330,0.0,0.0,77,0.00,,CLR,0.00,VWS V14.01,2013-07-11 05:21:00,
2013-07-11 00:26:00,65.8,58.4,30.01,NNW,330,0.0,0.0,77,0.00,,CLR,0.00,VWS V14.01,2013-07-11 05:26:00,
2013-07-11 00:30:00,65.6,58.2,30.01,NNW,330,0.0,0.0,77,0.00,,CLR,0.00,VWS V14.01,2013-07-11 05:30:00,
2013-07-11 00:31:00,65.6,58.2,30.01,NNW,330,0.0,0.0,77,0.00,,CLR,0.00,VWS V14.01,2013-07-11 05:31:00,
2013-07-11 00:36:00,65.7,58.3,30.01,NNW,330,0.0,0.0,77,0.00,,CLR,0.00,VWS V14.01,2013-07-11 05:36:00,
2013-07-11 00:41:00,65.6,58.6,30.01,NNW,330,0.0,0.0,78,0.00,,CLR,0.00,VWS V14.01,2013-07-11 05:41:00,
2013-07-11 00:46:00,65.3,58.3,30.01,NNW,330,0.0,0.0,78,0.00,,CLR,0.00,VWS V14.01,2013-07-11 05:46:00,
2013-07-11 00:51:00,65.0,58.0,30.01,NNW,330,0.0,0.0,78,0.00,,CLR,0.00,VWS V14.01,2013-07-11 05:51:00,
2013-07-11 00:56:00,64.7,58.4,30.01,NNW,330,0.0,0.0,80,0.00,,CLR,0.00,VWS V14.01,2013-07-11 05:56:00,
2013-07-11 01:00:00,64.7,59.1,30.01,NNW,330,0.0,0.0,82,0.00,,CLR,0.00,VWS V14.01,2013-07-11 06:00:00,
2013-07-11 01:01:00,64.7,59.1,30.01,NNW,330,0.0,0.0,82,0.00,,CLR,0.00,VWS V14.01,2013-07-11 06:01:00,
2013-07-11 01:06:00,65.0,59.0,30.01,NNW,330,0.0,0.0,81,0.00,,CLR,0.00,VWS V14.01,2013-07-11 06:06:00,
2013-07-11 01:11:00,65.4,59.1,30.02,NNW,330,0.0,0.0,80,0.00,,CLR,0.00,VWS V14.01,2013-07-11 06:11:00,
2013-07-11 01:16:00,65.4,59.1,30.02,NNW,330,0.0,0.0,80,0.00,,CLR,0.00,VWS V14.01,2013-07-11 06:16:00,
2013-07-11 01:21:00,65.4,59.1,30.02,NNW,330,0.0,0.0,80,0.00,,CLR,0.00,VWS V14.01,2013-07-11 06:21:00,
2013-07-11 01:26:00,65.3,59.0,30.02,NNW,330,0.0,0.0,80,0.00,,CLR,0.00,VWS V14.01,2013-07-11 06:26:00,
2013-07-11 01:30:00,64.9,58.9,30.02,NNW,330,0.0,0.0,81,0.00,,CLR,0.00,VWS V14.01,2013-07-11 06:30:00,
2013-07-11 01:31:00,64.9,58.9,30.02,NNW,330,0.0,0.0,81,0.00,,CLR,0.00,VWS V14.01,2013-07-11 06:31:00,
2013-07-11 01:36:00,64.4,59.1,30.02,NNW,330,0.0,0.0,83,0.00,,CLR,0.00,VWS V14.01,2013-07-11 06:36:00,
2013-07-11 01:41:00,63.9,59.3,30.02,NNW,330,0.0,0.0,85,0.00,,CLR,0.00,VWS V14.01,2013-07-11 06:41:00,
2013-07-11 01:46:00,63.7,58.8,30.02,NNW,330,0.0,0.0,84,0.00,,CLR,0.00,VWS V14.01,2013-07-11 06:46:00,
2013-07-11 01:51:00,63.7,58.8,30.02,NNW,330,0.0,0.0,84,0.00,,CLR,0.00,VWS V14.01,2013-07-11 06:51:00,
2013-07-11 01:56:00,63.7,59.1,30.02,NNW,330,0.0,0.0,85,0.00,,CLR,0.00,VWS V14.01,2013-07-11 06:56:00,
2013-07-11 02:00:00,63.5,59.2,30.02,NNW,330,0.0,0.0,86,0.00,,CLR,0.00,VWS V14.01,2013-07-11 07:00:00,
2013-07-11 02:01:00,63.5,59.2,30.02,NNW,330,0.0,0.0,86,0.00,,CLR,0.00,VWS V14.01,2013-07-11 07:01:00,
2013-07-11 02:06:00,63.4,58.8,30.02,NNW,330,0.0,0.0,85,0.00,,CLR,0.00,VWS V14.01,2013-07-11 07:06:00,
2013-07-11 02:11:00,63.3,59.0,30.02,NNW,330,0.0,0.0,86,0.00,,CLR,0.00,VWS V14.01,2013-07-11 07:11:00,
2013-07-11 02:16:00,63.4,58.8,30.02,NNW,330,0.0,0.0,85,0.00,,CLR,0.00,VWS V14.01,2013-07-11 07:16:00,
2013-07-11 02:21:00,63.2,59.0,30.02,NNW,330,0.0,0.0,86,0.00,,CLR,0.00,VWS V14.01,2013-07-11 07:21:00,
2013-07-11 02:26:00,63.1,59.2,30.02,NNW,330,0.0,0.0,87,0.00,,CLR,0.00,VWS V14.01,2013-07-11 07:26:00,
2013-07-11 02:30:00,63.0,59.1,30.02,NNW,330,0.0,0.0,87,0.00,,CLR,0.00,VWS V14.01,2013-07-11 07:30:00,
2013-07-11 02:31:00,63.0,59.1,30.02,NNW,330,0.0,0.0,87,0.00,,CLR,0.00,VWS V14.01,2013-07-11 07:31:00,
2013-07-11 02:36:00,63.0,59.1,30.02,NNW,330,0.0,0.0,87,0.00,,CLR,0.00,VWS V14.01,2013-07-11 07:36:00,
2013-07-11 02:41:00,62.9,58.7,30.02,NNW,330,0.0,0.0,86,0.00,,CLR,0.00,VWS V14.01,2013-07-11 07:41:00,
2013-07-11 02:46:00,62.5,58.3,30.02,NNW,330,0.0,0.0,86,0.00,,CLR,0.00,VWS V14.01,2013-07-11 07:46:00,
2013-07-11 02:51:00,62.3,58.4,30.02,NNW,330,0.0,0.0,87,0.00,,CLR,0.00,VWS V14.01,2013-07-11 07:51:00,
2013-07-11 02:56:00,62.5,58.6,30.02,NNW,330,0.0,0.0,87,0.00,,CLR,0.00,VWS V14.01,2013-07-11 07:56:00,
2013-07-11 03:00:00,62.7,58.1,30.02,NNW,330,0.0,0.0,85,0.00,,CLR,0.00,VWS V14.01,2013-07-11 08:00:00,
2013-07-11 03:01:00,62.7,58.1,30.02,NNW,330,0.0,0.0,85,0.00,,CLR,0.00,VWS V14.01,2013-07-11 08:01:00,
2013-07-11 03:06:00,62.7,57.8,30.03,NNW,330,0.0,0.0,84,0.00,,CLR,0.00,VWS V14.01,2013-07-11 08:06:00,
2013-07-11 03:11:00,62.9,59.0,30.03,NNW,330,0.0,0.0,87,0.00,,CLR,0.00,VWS V14.01,2013-07-11 08:11:00,
2013-07-11 03:16:00,63.0,58.4,30.03,NNW,330,0.0,0.0,85,0.00,,CLR,0.00,VWS V14.01,2013-07-11 08:16:00,
2013-07-11 03:21:00,63.1,58.2,30.03,NNW,330,0.0,0.0,84,0.00,,CLR,0.00,VWS V14.01,2013-07-11 08:21:00,
2013-07-11 03:26:00,63.0,57.8,30.03,NNW,330,0.0,0.0,83,0.00,,CLR,0.00,VWS V14.01,2013-07-11 08:26:00,
2013-07-11 03:30:00,63.0,57.1,30.03,NNW,330,0.0,0.0,81,0.00,,CLR,0.00,VWS V14.01,2013-07-11 08:30:00,
2013-07-11 03:31:00,63.1,57.5,30.03,NNW,330,0.0,0.0,82,0.00,,CLR,0.00,VWS V14.01,2013-07-11 08:31:00,
2013-07-11 03:36:00,62.9,57.3,30.03,NNW,330,0.0,0.0,82,0.00,,CLR,0.00,VWS V14.01,2013-07-11 08:36:00,
2013-07-11 03:41:00,62.6,57.4,30.03,NNW,330,0.0,0.0,83,0.00,,CLR,0.00,VWS V14.01,2013-07-11 08:41:00,
2013-07-11 03:46:00,62.4,57.5,30.03,NNW,330,0.0,0.0,84,0.00,,CLR,0.00,VWS V14.01,2013-07-11 08:46:00,
2013-07-11 03:51:00,62.2,57.0,30.03,NNW,330,0.0,0.0,83,0.00,,CLR,0.00,VWS V14.01,2013-07-11 08:51:00,
2013-07-11 03:56:00,62.0,56.8,30.03,NNW,330,0.0,0.0,83,0.00,,CLR,0.00,VWS V14.01,2013-07-11 08:56:00,
2013-07-11 04:00:00,61.9,56.3,30.03,NNW,330,0.0,0.0,82,0.00,,CLR,0.00,VWS V14.01,2013-07-11 09:00:00,
2013-07-11 04:01:00,61.9,56.3,30.03,NNW,330,0.0,0.0,82,0.00,,CLR,0.00,VWS V14.01,2013-07-11 09:01:00,
2013-07-11 04:06:00,61.8,55.9,30.03,NNW,330,0.0,0.0,81,0.00,,CLR,0.00,VWS V14.01,2013-07-11 09:06:00,
2013-07-11 04:11:00,62.3,56.4,30.03,NNW,330,0.0,0.0,81,0.00,,CLR,0.00,VWS V14.01,2013-07-11 09:11:00,
2013-07-11 04:16:00,62.3,56.4,30.03,NNW,330,0.0,0.0,81,0.00,,CLR,0.00,VWS V14.01,2013-07-11 09:16:00,
2013-07-11 04:21:00,62.4,56.8,30.03,NNW,330,0.0,0.0,82,0.00,,CLR,0.00,VWS V14.01,2013-07-11 09:21:00,
2013-07-11 04:26:00,62.3,57.1,30.03,NNW,330,0.0,0.0,83,0.00,,CLR,0.00,VWS V14.01,2013-07-11 09:26:00,
2013-07-11 04:30:00,61.9,56.7,30.03,NNW,330,0.0,0.0,83,0.00,,CLR,0.00,VWS V14.01,2013-07-11 09:30:00,
2013-07-11 04:31:00,61.9,56.3,30.03,NNW,330,0.0,0.0,82,0.00,,CLR,0.00,VWS V14.01,2013-07-11 09:31:00,
2013-07-11 04:36:00,61.4,55.9,30.03,NNW,330,0.0,0.0,82,0.00,,CLR,0.00,VWS V14.01,2013-07-11 09:36:00,
2013-07-11 04:41:00,61.1,55.9,30.04,NNW,330,0.0,0.0,83,0.00,,CLR,0.00,VWS V14.01,2013-07-11 09:41:00,
2013-07-11 04:46:00,60.8,55.6,30.04,NNW,330,0.0,0.0,83,0.00,,CLR,0.00,VWS V14.01,2013-07-11 09:46:00,
2013-07-11 04:51:00,60.8,55.9,30.03,NNW,330,0.0,0.0,84,0.00,,CLR,0.00,VWS V14.01,2013-07-11 09:51:00,
2013-07-11 04:56:00,61.1,55.9,30.04,NNW,330,0.0,0.0,83,0.00,,CLR,0.00,VWS V14.01,2013-07-11 09:56:00,
2013-07-11 05:00:00,61.3,56.1,30.04,NNW,330,0.0,0.0,83,0.00,,CLR,0.00,VWS V14.01,2013-07-11 10:00:00,
2013-07-11 05:01:00,61.4,56.2,30.04,NNW,330,0.0,0.0,83,0.00,,CLR,0.00,VWS V14.01,2013-07-11 10:01:00,
2013-07-11 05:06:00,61.3,56.8,30.04,NNW,330,0.0,0.0,85,0.00,,CLR,0.00,VWS V14.01,2013-07-11 10:06:00,
2013-07-11 05:11:00,60.9,56.0,30.04,NNW,330,0.0,0.0,84,0.00,,CLR,0.00,VWS V14.01,2013-07-11 10:11:00,
2013-07-11 05:16:00,60.7,56.2,30.04,NNW,330,0.0,0.0,85,0.00,,CLR,0.00,VWS V14.01,2013-07-11 10:16:00,
2013-07-11 05:21:00,60.9,56.0,30.05,NNW,330,0.0,0.0,84,0.00,,CLR,0.00,VWS V14.01,2013-07-11 10:21:00,
2013-07-11 05:26:00,60.8,55.9,30.04,NNW,330,0.0,0.0,84,0.00,,CLR,0.00,VWS V14.01,2013-07-11 10:26:00,
2013-07-11 05:30:00,60.7,55.8,30.05,NNW,330,0.0,0.0,84,0.00,,CLR,0.00,VWS V14.01,2013-07-11 10:30:00,
2013-07-11 05:31:00,60.7,55.8,30.05,NNW,330,0.0,0.0,84,0.00,,CLR,0.00,VWS V14.01,2013-07-11 10:31:00,
2013-07-11 05:36:00,60.6,56.4,30.05,NNW,330,0.0,0.0,86,0.00,,CLR,0.00,VWS V14.01,2013-07-11 10:36:00,
2013-07-11 05:41:00,60.8,56.3,30.05,NNW,330,0.0,0.0,85,0.00,,CLR,0.00,VWS V14.01,2013-07-11 10:41:00,
2013-07-11 05:46:00,60.9,56.4,30.05,NNW,330,0.0,0.0,85,0.00,,CLR,0.00,VWS V14.01,2013-07-11 10:46:00,
2013-07-11 05:51:00,60.9,56.4,30.05,NNW,330,0.0,0.0,85,0.00,,CLR,0.00,VWS V14.01,2013-07-11 10:51:00,
2013-07-11 05:56:00,60.8,56.3,30.05,NNW,330,0.0,0.0,85,0.00,,CLR,0.00,VWS V14.01,2013-07-11 10:56:00,
2013-07-11 06:00:00,60.9,56.4,30.05,NNW,330,0.0,0.0,85,0.00,,CLR,0.00,VWS V14.01,2013-07-11 11:00:00,
2013-07-11 06:01:00,60.9,56.4,30.05,NNW,330,0.0,0.0,85,0.00,,CLR,0.00,VWS V14.01,2013-07-11 11:01:00,
2013-07-11 06:06:00,61.2,56.0,30.05,NNW,330,0.0,0.0,83,0.00,,CLR,0.00,VWS V14.01,2013-07-11 11:06:00,
2013-07-11 06:11:00,61.4,56.2,30.06,NNW,330,0.0,0.0,83,0.00,,CLR,0.00,VWS V14.01,2013-07-11 11:11:00,
2013-07-11 06:16:00,61.6,56.1,30.05,NNW,330,0.0,0.0,82,0.00,,CLR,0.00,VWS V14.01,2013-07-11 11:16:00,
2013-07-11 06:21:00,61.5,55.6,30.05,NNW,330,0.0,0.0,81,0.00,,CLR,0.00,VWS V14.01,2013-07-11 11:21:00,
2013-07-11 06:26:00,61.4,55.9,30.06,NNW,330,0.0,0.0,82,0.00,,CLR,0.00,VWS V14.01,2013-07-11 11:26:00,
2013-07-11 06:30:00,61.3,55.8,30.06,NNW,330,0.0,0.0,82,0.00,,CLR,0.00,VWS V14.01,2013-07-11 11:30:00,
2013-07-11 06:31:00,61.3,55.8,30.06,NNW,330,0.0,0.0,82,0.00,,CLR,0.00,VWS V14.01,2013-07-11 11:31:00,
2013-07-11 06:36:00,61.8,55.9,30.05,NNW,330,0.0,0.0,81,0.00,,CLR,0.00,VWS V14.01,2013-07-11 11:36:00,
2013-07-11 06:41:00,62.5,56.6,30.06,NNW,330,0.0,0.0,81,0.00,,CLR,0.00,VWS V14.01,2013-07-11 11:41:00,
2013-07-11 06:46:00,62.6,56.7,30.06,NNW,330,0.0,0.0,81,0.00,,CLR,0.00,VWS V14.01,2013-07-11 11:46:00,
2013-07-11 06:51:00,62.7,58.1,30.06,NNW,330,0.0,0.0,85,0.00,,CLR,0.00,VWS V14.01,2013-07-11 11:51:00,
2013-07-11 06:56:00,62.7,59.1,30.06,NNW,330,0.0,0.0,88,0.00,,CLR,0.00,VWS V14.01,2013-07-11 11:56:00,
2013-07-11 07:00:00,62.7,59.1,30.06,NNW,330,0.0,0.0,88,0.00,,CLR,0.00,VWS V14.01,2013-07-11 12:00:00,
2013-07-11 07:01:00,62.7,59.1,30.06,NNW,330,0.0,0.0,88,0.00,,,0.00,VWS V14.01,2013-07-11 12:01:00,
2013-07-11 07:06:00,62.6,58.7,30.06,NNW,330,0.0,0.0,87,0.00,,,0.00,VWS V14.01,2013-07-11 12:06:00,
2013-07-11 07:11:00,62.9,59.9,30.06,NNW,330,0.0,0.0,90,0.00,,,0.00,VWS V14.01,2013-07-11 12:11:00,
2013-07-11 07:16:00,63.0,59.7,30.06,NNW,330,0.0,0.0,89,0.00,,,0.00,VWS V14.01,2013-07-11 12:16:00,
2013-07-11 07:21:00,63.2,59.3,30.06,NNW,330,0.0,0.0,87,0.00,,,0.00,VWS V14.01,2013-07-11 12:21:00,
2013-07-11 07:26:00,63.7,58.8,30.06,NNW,330,0.0,0.0,84,0.00,,,0.00,VWS V14.01,2013-07-11 12:26:00,
2013-07-11 07:30:00,64.5,58.9,30.06,East,99,0.0,0.0,82,0.00,,CLR,0.00,VWS V14.01,2013-07-11 12:30:00,
2013-07-11 07:31:00,64.5,58.9,30.06,East,99,0.0,0.0,82,0.00,,,0.00,VWS V14.01,2013-07-11 12:31:00,
2013-07-11 07:36:00,65.4,58.4,30.06,SE,143,0.0,0.0,78,0.00,,,0.00,VWS V14.01,2013-07-11 12:36:00,
2013-07-11 07:41:00,66.1,58.3,30.06,SE,135,0.0,1.0,76,0.00,,,0.00,VWS V14.01,2013-07-11 12:41:00,
2013-07-11 07:46:00,66.6,58.4,30.06,SE,139,0.0,1.0,75,0.00,,,0.00,VWS V14.01,2013-07-11 12:46:00,
2013-07-11 07:50:00,67.0,57.3,30.06,SE,146,1.0,2.0,71,0.00,,,0.00,VWS V14.01,2013-07-11 12:50:00,
2013-07-11 07:56:00,67.7,57.6,30.06,SE,136,2.0,3.0,70,0.00,,,0.00,VWS V14.01,2013-07-11 12:56:00,
2013-07-11 08:00:00,68.3,57.3,30.07,ESE,121,2.0,3.0,68,0.00,,CLR,0.00,VWS V14.01,2013-07-11 13:00:00,
2013-07-11 08:01:00,68.3,57.8,30.06,SE,126,3.0,3.0,69,0.00,,,0.00,VWS V14.01,2013-07-11 13:01:00,
2013-07-11 08:06:00,68.8,56.6,30.06,SSE,156,2.0,4.0,65,0.00,,,0.00,VWS V14.01,2013-07-11 13:06:00,
2013-07-11 08:11:00,69.3,57.0,30.06,SSE,151,3.0,4.0,65,0.00,,,0.00,VWS V14.01,2013-07-11 13:11:00,
2013-07-11 08:16:00,69.8,58.4,30.06,ESE,123,4.0,4.0,67,0.00,,,0.00,VWS V14.01,2013-07-11 13:16:00,
2013-07-11 08:21:00,70.1,57.4,30.06,SE,146,3.0,5.0,64,0.00,,,0.00,VWS V14.01,2013-07-11 13:21:00,
2013-07-11 08:26:00,70.5,57.8,30.06,SE,145,3.0,5.0,64,0.00,,,0.00,VWS V14.01,2013-07-11 13:26:00,
2013-07-11 08:30:00,70.7,56.6,30.06,SE,136,3.0,6.0,61,0.00,,CLR,0.00,VWS V14.01,2013-07-11 13:30:00,
2013-07-11 08:31:00,70.8,57.2,30.06,SSE,150,4.0,4.0,62,0.00,,,0.00,VWS V14.01,2013-07-11 13:31:00,
2013-07-11 08:36:00,71.1,58.3,30.06,SE,140,4.0,6.0,64,0.00,,,0.00,VWS V14.01,2013-07-11 13:36:00,
2013-07-11 08:41:00,71.6,57.9,30.06,SE,145,4.0,6.0,62,0.00,,,0.00,VWS V14.01,2013-07-11 13:41:00,
2013-07-11 08:46:00,72.0,57.8,30.06,SE,125,5.0,6.0,61,0.00,,,0.00,VWS V14.01,2013-07-11 13:46:00,
2013-07-11 08:51:00,72.0,60.0,30.06,SSE,155,4.0,6.0,66,0.00,,,0.00,VWS V14.01,2013-07-11 13:51:00,
2013-07-11 08:56:00,72.4,58.7,30.06,SE,145,5.0,6.0,62,0.00,,,0.00,VWS V14.01,2013-07-11 13:56:00,
2013-07-11 09:00:00,68.3,57.3,30.07,ESE,121,2.0,3.0,68,0.00,,,0.00,VWS V14.01,2013-07-11 14:00:00,
2013-07-11 09:01:00,72.5,58.3,30.06,SSE,158,4.0,5.0,61,0.00,,CLR,0.00,VWS V14.01,2013-07-11 14:01:00,
2013-07-11 09:07:00,72.5,58.3,30.06,SSE,161,4.0,8.0,61,0.00,,CLR,0.00,VWS V14.01,2013-07-11 14:07:00,
2013-07-11 09:12:00,72.8,59.0,30.06,SE,145,5.0,8.0,62,0.00,,CLR,0.00,VWS V14.01,2013-07-11 14:12:00,
2013-07-11 09:17:00,73.0,57.4,30.06,SSE,153,5.0,8.0,58,0.00,,CLR,0.00,VWS V14.01,2013-07-11 14:17:00,
2013-07-11 09:22:00,73.5,57.8,30.06,South,172,5.0,8.0,58,0.00,,CLR,0.00,VWS V14.01,2013-07-11 14:22:00,
2013-07-11 09:27:00,73.7,58.5,30.06,SSE,152,3.0,8.0,59,0.00,,CLR,0.00,VWS V14.01,2013-07-11 14:27:00,
2013-07-11 09:30:00,73.9,58.2,30.06,SSE,152,4.0,8.0,58,0.00,,CLR,0.00,VWS V14.01,2013-07-11 14:30:00,
2013-07-11 09:32:00,73.9,57.7,30.06,SSE,160,4.0,7.0,57,0.00,,CLR,0.00,VWS V14.01,2013-07-11 14:32:00,
2013-07-11 09:37:00,74.0,58.3,30.06,SE,125,6.0,7.0,58,0.00,,CLR,0.00,VWS V14.01,2013-07-11 14:37:00,
2013-07-11 09:42:00,74.2,57.5,30.06,SE,131,4.0,9.0,56,0.00,,CLR,0.00,VWS V14.01,2013-07-11 14:42:00,
2013-07-11 09:47:00,74.4,57.7,30.06,ESE,118,5.0,9.0,56,0.00,,CLR,0.00,VWS V14.01,2013-07-11 14:47:00,
2013-07-11 09:52:00,74.6,57.9,30.06,SE,133,4.0,9.0,56,0.00,,CLR,0.00,VWS V14.01,2013-07-11 14:52:00,
2013-07-11 09:57:00,74.9,57.2,30.06,SE,125,6.0,9.0,54,0.00,,CLR,0.00,VWS V14.01,2013-07-11 14:57:00,
2013-07-11 10:00:00,72.4,59.1,30.06,SE,124,5.0,7.0,63,0.00,,,0.00,VWS V14.01,2013-07-11 15:00:00,
2013-07-11 10:03:00,75.1,57.3,30.06,SSE,148,7.0,8.0,54,0.00,,CLR,0.00,VWS V14.01,2013-07-11 15:03:00,
2013-07-11 10:08:00,75.3,57.0,30.06,SE,133,6.0,8.0,53,0.00,,CLR,0.00,VWS V14.01,2013-07-11 15:08:00,
2013-07-11 10:13:00,75.4,56.6,30.05,SE,143,6.0,9.0,52,0.00,,CLR,0.00,VWS V14.01,2013-07-11 15:13:00,
2013-07-11 10:18:00,75.7,57.9,30.05,SSE,168,5.0,9.0,54,0.00,,CLR,0.00,VWS V14.01,2013-07-11 15:18:00,
2013-07-11 10:23:00,76.0,57.1,30.06,SSE,162,7.0,9.0,52,0.00,,CLR,0.00,VWS V14.01,2013-07-11 15:23:00,
2013-07-11 10:28:00,76.3,56.3,30.06,SSE,162,7.0,9.0,50,0.00,,CLR,0.00,VWS V14.01,2013-07-11 15:28:00,
2013-07-11 10:30:00,76.4,56.4,30.06,South,169,3.0,9.0,50,0.00,,CLR,0.00,VWS V14.01,2013-07-11 15:30:00,
2013-07-11 10:33:00,76.5,55.9,30.06,SE,143,6.0,8.0,49,0.00,,CLR,0.00,VWS V14.01,2013-07-11 15:33:00,
2013-07-11 10:38:00,76.6,57.1,30.06,SSE,148,4.0,8.0,51,0.00,,CLR,0.00,VWS V14.01,2013-07-11 15:38:00,
2013-07-11 10:43:00,76.8,54.5,30.06,SSE,152,8.0,9.0,46,0.00,,CLR,0.00,VWS V14.01,2013-07-11 15:43:00,
2013-07-11 10:48:00,76.9,56.9,30.06,ESE,119,4.0,9.0,50,0.00,,CLR,0.00,VWS V14.01,2013-07-11 15:48:00,
2013-07-11 10:53:00,76.8,55.7,30.06,South,176,6.0,9.0,48,0.00,,CLR,0.00,VWS V14.01,2013-07-11 15:53:00,
2013-07-11 10:58:00,77.1,54.8,30.06,ESE,103,8.0,9.0,46,0.00,,CLR,0.00,VWS V14.01,2013-07-11 15:58:00,
2013-07-11 11:00:00,76.8,54.5,30.06,ESE,114,8.0,9.0,46,0.00,,CLR,0.00,VWS V14.01,2013-07-11 16:00:00,
2013-07-11 11:03:00,76.8,55.7,30.06,SE,144,5.0,10.0,48,0.00,,CLR,0.00,VWS V14.01,2013-07-11 16:03:00,
2013-07-11 11:08:00,77.1,55.9,30.06,SSE,156,5.0,10.0,48,0.00,,CLR,0.00,VWS V14.01,2013-07-11 16:08:00,
2013-07-11 11:14:00,77.4,53.8,30.06,ESE,123,5.0,10.0,44,0.00,,CLR,0.00,VWS V14.01,2013-07-11 16:14:00,
2013-07-11 11:19:00,77.3,54.9,30.06,South,184,3.0,10.0,46,0.00,,CLR,0.00,VWS V14.01,2013-07-11 16:19:00,
2013-07-11 11:24:00,77.5,53.9,30.06,SSE,153,4.0,10.0,44,0.00,,CLR,0.00,VWS V14.01,2013-07-11 16:24:00,
2013-07-11 11:29:00,77.9,54.9,30.06,ESE,113,9.0,11.0,45,0.00,,CLR,0.00,VWS V14.01,2013-07-11 16:29:00,
2013-07-11 11:30:00,77.7,54.1,30.06,ESE,113,5.0,11.0,44,0.00,,CLR,0.00,VWS V14.01,2013-07-11 16:30:00,
2013-07-11 11:34:00,77.6,54.6,30.06,ESE,108,4.0,12.0,45,0.00,,CLR,0.00,VWS V14.01,2013-07-11 16:34:00,
2013-07-11 11:39:00,77.9,55.5,30.06,SE,138,6.0,12.0,46,0.00,,CLR,0.00,VWS V14.01,2013-07-11 16:39:00,
2013-07-11 11:44:00,78.0,53.7,30.06,SSE,165,5.0,12.0,43,0.00,,CLR,0.00,VWS V14.01,2013-07-11 16:44:00,
2013-07-11 11:49:00,78.1,55.7,30.06,ESE,105,5.0,13.0,46,0.00,,CLR,0.00,VWS V14.01,2013-07-11 16:49:00,
2013-07-11 11:54:00,78.3,54.0,30.05,ESE,103,9.0,13.0,43,0.00,,CLR,0.00,VWS V14.01,2013-07-11 16:54:00,
2013-07-11 11:59:00,78.3,56.4,30.05,SE,137,9.0,13.0,47,0.00,,CLR,0.00,VWS V14.01,2013-07-11 16:59:00,
2013-07-11 12:00:00,78.3,56.4,30.05,SSE,148,4.0,13.0,47,0.00,,CLR,0.00,VWS V14.01,2013-07-11 17:00:00,
2013-07-11 12:05:00,78.3,54.6,30.05,SW,231,4.0,7.0,44,0.00,,CLR,0.00,VWS V14.01,2013-07-11 17:05:00,
2013-07-11 12:10:00,78.5,55.4,30.05,East,98,4.0,12.0,45,0.00,,CLR,0.00,VWS V14.01,2013-07-11 17:10:00,
2013-07-11 12:15:00,78.7,55.0,30.05,SSE,162,7.0,13.0,44,0.00,,CLR,0.00,VWS V14.01,2013-07-11 17:15:00,
2013-07-11 12:20:00,78.7,54.3,30.05,SE,145,5.0,13.0,43,0.00,,CLR,0.00,VWS V14.01,2013-07-11 17:20:00,
2013-07-11 12:25:00,79.2,55.4,30.05,SE,136,10.0,14.0,44,0.00,,CLR,0.00,VWS V14.01,2013-07-11 17:25:00,
2013-07-11 12:30:00,78.7,54.3,30.04,ESE,113,9.0,14.0,43,0.00,,CLR,0.00,VWS V14.01,2013-07-11 17:30:00,
2013-07-11 12:35:00,79.0,53.3,30.04,ESE,111,9.0,10.0,41,0.00,,CLR,0.00,VWS V14.01,2013-07-11 17:35:00,
2013-07-11 12:40:00,78.9,53.9,30.04,ESE,115,8.0,16.0,42,0.00,,CLR,0.00,VWS V14.01,2013-07-11 17:40:00,
2013-07-11 12:45:00,79.0,54.6,30.04,ESE,118,11.0,16.0,43,0.00,,CLR,0.00,VWS V14.01,2013-07-11 17:45:00,
2013-07-11 12:50:00,79.1,54.1,30.04,SE,131,11.0,16.0,42,0.00,,CLR,0.00,VWS V14.01,2013-07-11 17:50:00,
2013-07-11 12:55:00,79.0,54.0,30.04,SE,134,8.0,16.0,42,0.00,,CLR,0.00,VWS V14.01,2013-07-11 17:55:00,
2013-07-11 13:00:00,79.4,54.3,30.03,SSE,155,5.0,16.0,42,0.00,,CLR,0.00,VWS V14.01,2013-07-11 18:00:00,
2013-07-11 13:05:00,79.6,53.8,30.03,South,190,8.0,12.0,41,0.00,,CLR,0.00,VWS V14.01,2013-07-11 18:05:00,
2013-07-11 13:10:00,79.8,56.0,30.03,SSE,155,9.0,13.0,44,0.00,,CLR,0.00,VWS V14.01,2013-07-11 18:10:00,
2013-07-11 13:15:00,79.9,54.8,30.03,South,190,5.0,14.0,42,0.00,,CLR,0.00,VWS V14.01,2013-07-11 18:15:00,
2013-07-11 13:20:00,79.8,53.4,30.02,SE,133,10.0,14.0,40,0.00,,CLR,0.00,VWS V14.01,2013-07-11 18:20:00,
2013-07-11 13:26:00,79.7,55.9,30.02,ESE,108,11.0,14.0,44,0.00,,CLR,0.00,VWS V14.01,2013-07-11 18:26:00,
2013-07-11 13:30:00,79.8,55.3,30.02,East,96,13.0,14.0,43,0.00,,CLR,0.00,VWS V14.01,2013-07-11 18:30:00,
2013-07-11 13:31:00,79.8,55.3,30.02,ESE,109,9.0,13.0,43,0.00,,CLR,0.00,VWS V14.01,2013-07-11 18:31:00,
2013-07-11 13:36:00,79.8,55.3,30.02,SE,137,11.0,14.0,43,0.00,,CLR,0.00,VWS V14.01,2013-07-11 18:36:00,
2013-07-11 13:41:00,79.9,54.8,30.02,SE,140,8.0,14.0,42,0.00,,CLR,0.00,VWS V14.01,2013-07-11 18:41:00,
2013-07-11 13:46:00,80.0,56.2,30.02,SE,145,13.0,14.0,44,0.00,,CLR,0.00,VWS V14.01,2013-07-11 18:46:00,
2013-07-11 13:52:00,80.1,55.0,30.02,SSE,152,8.0,15.0,42,0.00,,CLR,0.00,VWS V14.01,2013-07-11 18:52:00,
2013-07-11 13:57:00,80.1,54.3,30.02,SE,131,9.0,15.0,41,0.00,,CLR,0.00,VWS V14.01,2013-07-11 18:57:00,
2013-07-11 14:00:00,80.4,55.2,30.02,SE,127,11.0,15.0,42,0.00,,CLR,0.00,VWS V14.01,2013-07-11 19:00:00,
2013-07-11 14:02:00,80.4,53.2,30.02,SE,127,10.0,12.0,39,0.00,,CLR,0.00,VWS V14.01,2013-07-11 19:02:00,
2013-07-11 14:07:00,80.4,53.9,30.02,SE,125,10.0,15.0,40,0.00,,CLR,0.00,VWS V14.01,2013-07-11 19:07:00,
2013-07-11 14:12:00,80.4,54.6,30.02,ESE,115,9.0,15.0,41,0.00,,CLR,0.00,VWS V14.01,2013-07-11 19:12:00,
2013-07-11 14:17:00,80.5,55.3,30.01,SE,125,10.0,15.0,42,0.00,,CLR,0.00,VWS V14.01,2013-07-11 19:17:00,
2013-07-11 14:22:00,80.7,54.8,30.01,ESE,108,11.0,15.0,41,0.00,,CLR,0.00,VWS V14.01,2013-07-11 19:22:00,
2013-07-11 14:27:00,80.6,53.4,30.01,SE,145,5.0,16.0,39,0.00,,CLR,0.00,VWS V14.01,2013-07-11 19:27:00,
2013-07-11 14:30:00,80.8,54.2,30.01,SE,136,11.0,16.0,40,0.00,,CLR,0.00,VWS V14.01,2013-07-11 19:30:00,
2013-07-11 14:32:00,80.7,54.2,30.01,SE,131,6.0,12.0,40,0.00,,CLR,0.00,VWS V14.01,2013-07-11 19:32:00,
2013-07-11 14:37:00,80.8,54.2,30.01,ESE,110,7.0,14.0,40,0.00,,CLR,0.00,VWS V14.01,2013-07-11 19:37:00,
2013-07-11 14:42:00,80.7,54.2,30.01,SE,129,6.0,15.0,40,0.00,,CLR,0.00,VWS V14.01,2013-07-11 19:42:00,
2013-07-11 14:48:00,80.8,55.6,30.01,SE,125,8.0,15.0,42,0.00,,CLR,0.00,VWS V14.01,2013-07-11 19:48:00,
2013-07-11 14:53:00,80.8,56.9,30.01,South,178,6.0,15.0,44,0.00,,CLR,0.00,VWS V14.01,2013-07-11 19:53:00,
2013-07-11 14:58:00,81.2,54.6,30.01,SE,143,14.0,20.0,40,0.00,,CLR,0.00,VWS V14.01,2013-07-11 19:58:00,
2013-07-11 15:00:00,80.4,55.2,30.02,SE,127,11.0,15.0,42,0.00,,,0.00,VWS V14.01,2013-07-11 20:00:00,
2013-07-11 15:03:00,81.0,55.1,30.01,South,184,8.0,15.0,41,0.00,,CLR,0.00,VWS V14.01,2013-07-11 20:03:00,
2013-07-11 15:08:00,80.9,56.3,30.00,SE,134,10.0,15.0,43,0.00,,CLR,0.00,VWS V14.01,2013-07-11 20:08:00,
2013-07-11 15:13:00,81.3,54.7,30.00,SSE,150,6.0,15.0,40,0.00,,CLR,0.00,VWS V14.01,2013-07-11 20:13:00,
2013-07-11 15:18:00,81.6,57.6,30.00,SE,141,11.0,15.0,44,0.00,,CLR,0.00,VWS V14.01,2013-07-11 20:18:00,
2013-07-11 15:23:00,81.5,54.9,30.00,SE,135,11.0,16.0,40,0.00,,CLR,0.00,VWS V14.01,2013-07-11 20:23:00,
2013-07-11 15:29:00,81.3,55.4,30.00,ESE,116,9.0,16.0,41,0.00,,CLR,0.00,VWS V14.01,2013-07-11 20:29:00,
2013-07-11 15:30:00,81.4,56.1,30.00,SE,143,7.0,16.0,42,0.00,,CLR,0.00,VWS V14.01,2013-07-11 20:30:00,
2013-07-11 15:34:00,81.5,53.5,30.00,SE,138,10.0,14.0,38,0.00,,CLR,0.00,VWS V14.01,2013-07-11 20:34:00,
2013-07-11 15:39:00,81.6,56.3,30.00,SE,135,10.0,14.0,42,0.00,,CLR,0.00,VWS V14.01,2013-07-11 20:39:00,
2013-07-11 15:44:00,81.7,54.4,30.00,SE,129,6.0,16.0,39,0.00,,CLR,0.00,VWS V14.01,2013-07-11 20:44:00,
2013-07-11 15:49:00,81.6,55.0,30.01,SE,139,6.0,16.0,40,0.00,,CLR,0.00,VWS V14.01,2013-07-11 20:49:00,
2013-07-11 15:54:00,81.7,56.4,30.01,SSW,200,7.0,16.0,42,0.00,,CLR,0.00,VWS V14.01,2013-07-11 20:54:00,
2013-07-11 15:59:00,82.0,56.0,30.01,South,177,6.0,16.0,41,0.00,,CLR,0.00,VWS V14.01,2013-07-11 20:59:00,
2013-07-11 16:00:00,81.9,55.2,30.01,SSE,148,12.0,16.0,40,0.00,,CLR,0.00,VWS V14.01,2013-07-11 21:00:00,
2013-07-11 16:04:00,82.0,55.3,30.01,ESE,120,10.0,14.0,40,0.00,,CLR,0.00,VWS V14.01,2013-07-11 21:04:00,
2013-07-11 16:09:00,82.4,55.7,30.01,SE,127,11.0,15.0,40,0.00,,CLR,0.00,VWS V14.01,2013-07-11 21:09:00,
2013-07-11 16:14:00,82.2,56.2,30.00,SE,143,12.0,15.0,41,0.00,,CLR,0.00,VWS V14.01,2013-07-11 21:14:00,
2013-07-11 16:19:00,82.0,55.3,30.00,SSE,152,7.0,15.0,40,0.00,,CLR,0.00,VWS V14.01,2013-07-11 21:19:00,
2013-07-11 16:24:00,81.8,55.8,30.00,SE,145,9.0,17.0,41,0.00,,CLR,0.00,VWS V14.01,2013-07-11 21:24:00,
2013-07-11 16:29:00,81.8,53.7,30.00,ESE,105,11.0,17.0,38,0.00,,CLR,0.00,VWS V14.01,2013-07-11 21:29:00,
2013-07-11 16:30:00,81.8,53.7,30.00,SSE,150,10.0,17.0,38,0.00,,CLR,0.00,VWS V14.01,2013-07-11 21:30:00,
2013-07-11 16:34:00,82.0,53.9,30.00,SSE,150,9.0,13.0,38,0.00,,CLR,0.00,VWS V14.01,2013-07-11 21:34:00,
2013-07-11 16:39:00,81.9,55.2,30.00,SE,134,11.0,16.0,40,0.00,,CLR,0.00,VWS V14.01,2013-07-11 21:39:00,
2013-07-11 16:44:00,81.9,54.5,30.00,SSE,167,9.0,16.0,39,0.00,,CLR,0.00,VWS V14.01,2013-07-11 21:44:00,
2013-07-11 16:49:00,82.1,53.3,30.00,SE,139,11.0,16.0,37,0.00,,CLR,0.00,VWS V14.01,2013-07-11 21:49:00,
2013-07-11 16:54:00,82.0,51.7,30.00,SSE,150,9.0,16.0,35,0.00,,CLR,0.00,VWS V14.01,2013-07-11 21:54:00,
2013-07-11 16:59:00,81.9,54.5,30.00,SE,140,10.0,16.0,39,0.00,,CLR,0.00,VWS V14.01,2013-07-11 21:59:00,
2013-07-11 17:00:00,81.9,55.2,30.00,SE,134,9.0,16.0,40,0.00,,CLR,0.00,VWS V14.01,2013-07-11 22:00:00,
2013-07-11 17:05:00,81.8,54.5,30.00,SSE,168,11.0,14.0,39,0.00,,CLR,0.00,VWS V14.01,2013-07-11 22:05:00,
2013-07-11 17:10:00,82.0,54.6,29.99,ESE,103,11.0,18.0,39,0.00,,CLR,0.00,VWS V14.01,2013-07-11 22:10:00,
2013-07-11 17:15:00,82.0,54.6,29.99,SE,140,10.0,18.0,39,0.00,,CLR,0.00,VWS V14.01,2013-07-11 22:15:00,
2013-07-11 17:20:00,82.0,53.2,29.99,SSE,158,4.0,18.0,37,0.00,,CLR,0.00,VWS V14.01,2013-07-11 22:20:00,
2013-07-11 17:25:00,82.3,54.9,29.99,SE,136,13.0,18.0,39,0.00,,CLR,0.00,VWS V14.01,2013-07-11 22:25:00,
2013-07-11 17:30:00,82.1,56.1,29.99,SE,138,13.0,18.0,41,0.00,,CLR,0.00,VWS V14.01,2013-07-11 22:30:00,
2013-07-11 17:35:00,82.0,55.3,29.99,ESE,109,13.0,15.0,40,0.00,,CLR,0.00,VWS V14.01,2013-07-11 22:35:00,
2013-07-11 17:40:00,81.8,55.1,29.99,SE,125,11.0,16.0,40,0.00,,CLR,0.00,VWS V14.01,2013-07-11 22:40:00,
2013-07-11 17:45:00,82.1,55.4,29.99,SE,131,8.0,16.0,40,0.00,,CLR,0.00,VWS V14.01,2013-07-11 22:45:00,
2013-07-11 17:50:00,82.0,53.9,29.99,ESE,114,12.0,16.0,38,0.00,,CLR,0.00,VWS V14.01,2013-07-11 22:50:00,
2013-07-11 17:55:00,81.9,54.5,29.98,SE,134,9.0,16.0,39,0.00,,CLR,0.00,VWS V14.01,2013-07-11 22:55:00,
2013-07-11 18:00:00,81.8,55.1,29.98,SE,132,9.0,16.0,40,0.00,,CLR,0.00,VWS V14.01,2013-07-11 23:00:00,
2013-07-11 18:06:00,81.9,55.9,29.98,SE,124,11.0,13.0,41,0.00,,CLR,0.00,VWS V14.01,2013-07-11 23:06:00,
2013-07-11 18:11:00,81.7,55.7,29.98,ESE,112,11.0,13.0,41,0.00,,CLR,0.00,VWS V14.01,2013-07-11 23:11:00,
2013-07-11 18:16:00,81.5,55.5,29.98,SE,138,9.0,15.0,41,0.00,,CLR,0.00,VWS V14.01,2013-07-11 23:16:00,
2013-07-11 18:21:00,81.5,56.2,29.98,SSE,148,12.0,15.0,42,0.00,,CLR,0.00,VWS V14.01,2013-07-11 23:21:00,
2013-07-11 18:26:00,81.3,56.0,29.98,SE,134,9.0,15.0,42,0.00,,CLR,0.00,VWS V14.01,2013-07-11 23:26:00,
2013-07-11 18:30:00,81.2,56.0,29.98,SE,136,8.0,15.0,42,0.00,,CLR,0.00,VWS V14.01,2013-07-11 23:30:00,
2013-07-11 18:31:00,81.2,56.0,29.98,SE,125,9.0,10.0,42,0.00,,CLR,0.00,VWS V14.01,2013-07-11 23:31:00,
2013-07-11 18:36:00,81.2,57.9,29.97,ESE,122,13.0,14.0,45,0.00,,CLR,0.00,VWS V14.01,2013-07-11 23:36:00,
2013-07-11 18:41:00,81.1,56.5,29.97,SSE,148,11.0,15.0,43,0.00,,CLR,0.00,VWS V14.01,2013-07-11 23:41:00,
2013-07-11 18:46:00,81.0,56.4,29.98,SSE,153,11.0,15.0,43,0.00,,CLR,0.00,VWS V14.01,2013-07-11 23:46:00,
2013-07-11 18:51:00,80.9,56.3,29.98,SE,137,12.0,15.0,43,0.00,,CLR,0.00,VWS V14.01,2013-07-11 23:51:00,
2013-07-11 18:56:00,80.7,55.5,29.97,SE,128,9.0,15.0,42,0.00,,CLR,0.00,VWS V14.01,2013-07-11 23:56:00,
2013-07-11 19:00:00,81.8,55.1,29.98,SE,132,9.0,16.0,40,0.00,,,0.00,VWS V14.01,2013-07-12 00:00:00,
2013-07-11 19:01:00,80.7,55.5,29.97,SE,131,10.0,10.0,42,0.00,,CLR,0.00,VWS V14.01,2013-07-12 00:01:00,
2013-07-11 19:06:00,80.5,56.6,29.97,SE,146,9.0,14.0,44,0.00,,CLR,0.00,VWS V14.01,2013-07-12 00:06:00,
2013-07-11 19:11:00,80.3,56.4,29.97,ESE,120,9.0,14.0,44,0.00,,CLR,0.00,VWS V14.01,2013-07-12 00:11:00,
2013-07-11 19:16:00,80.2,57.0,29.97,SE,139,9.0,14.0,45,0.00,,CLR,0.00,VWS V14.01,2013-07-12 00:16:00,
2013-07-11 19:21:00,80.0,56.2,29.97,SE,132,9.0,14.0,44,0.00,,CLR,0.00,VWS V14.01,2013-07-12 00:21:00,
2013-07-11 19:26:00,79.8,56.6,29.97,SE,134,8.0,14.0,45,0.00,,CLR,0.00,VWS V14.01,2013-07-12 00:26:00,
2013-07-11 19:30:00,81.2,56.0,29.98,SE,136,8.0,15.0,42,0.00,,,0.00,VWS V14.01,2013-07-12 00:30:00,
2013-07-11 19:31:00,79.6,56.4,29.97,ESE,103,11.0,12.0,45,0.00,,CLR,0.00,VWS V14.01,2013-07-12 00:31:00,
2013-07-11 19:36:00,79.2,56.0,29.97,SE,145,13.0,13.0,45,0.00,,CLR,0.00,VWS V14.01,2013-07-12 00:36:00,
2013-07-11 19:41:00,78.8,56.3,29.97,SE,127,10.0,13.0,46,0.00,,CLR,0.00,VWS V14.01,2013-07-12 00:41:00,
2013-07-11 19:47:00,78.5,56.6,29.97,SE,135,8.0,13.0,47,0.00,,CLR,0.00,VWS V14.01,2013-07-12 00:47:00,
2013-07-11 19:52:00,78.2,56.3,29.97,SE,126,5.0,13.0,47,0.00,,CLR,0.00,VWS V14.01,2013-07-12 00:52:00,
2013-07-11 19:57:00,77.9,56.7,29.97,SSE,159,7.0,13.0,48,0.00,,CLR,0.00,VWS V14.01,2013-07-12 00:57:00,
2013-07-11 20:00:00,77.6,57.0,29.96,SE,126,8.0,13.0,49,0.00,,CLR,0.00,VWS V14.01,2013-07-12 01:00:00,
2013-07-11 20:02:00,77.6,57.0,29.96,SSE,150,7.0,8.0,49,0.00,,CLR,0.00,VWS V14.01,2013-07-12 01:02:00,
2013-07-11 20:07:00,77.2,57.1,29.96,SSE,150,7.0,8.0,50,0.00,,CLR,0.00,VWS V14.01,2013-07-12 01:07:00,
2013-07-11 20:12:00,76.8,57.9,29.96,SE,145,7.0,8.0,52,0.00,,CLR,0.00,VWS V14.01,2013-07-12 01:12:00,
2013-07-11 20:17:00,76.5,58.1,29.96,ESE,121,5.0,8.0,53,0.00,,CLR,0.00,VWS V14.01,2013-07-12 01:17:00,
2013-07-11 20:22:00,76.0,58.2,29.96,SE,143,6.0,8.0,54,0.00,,CLR,0.00,VWS V14.01,2013-07-12 01:22:00,
2013-07-11 20:27:00,75.6,58.8,29.96,SE,129,4.0,8.0,56,0.00,,CLR,0.00,VWS V14.01,2013-07-12 01:27:00,
2013-07-11 20:30:00,79.6,55.8,29.97,SE,139,11.0,14.0,44,0.00,,,0.00,VWS V14.01,2013-07-12 01:30:00,
2013-07-11 20:32:00,75.1,59.3,29.96,SE,136,6.0,6.0,58,0.00,,CLR,0.00,VWS V14.01,2013-07-12 01:32:00,
2013-07-11 20:37:00,74.8,59.0,29.96,ESE,116,4.0,6.0,58,0.00,,CLR,0.00,VWS V14.01,2013-07-12 01:37:00,
2013-07-11 20:43:00,74.4,59.2,29.96,SE,130,5.0,7.0,59,0.00,,CLR,0.00,VWS V14.01,2013-07-12 01:43:00,
2013-07-11 20:48:00,74.1,58.9,29.96,SE,141,5.0,7.0,59,0.00,,CLR,0.00,VWS V14.01,2013-07-12 01:48:00,
2013-07-11 20:53:00,73.8,59.5,29.96,ESE,123,3.0,7.0,61,0.00,,CLR,0.00,VWS V14.01,2013-07-12 01:53:00,
2013-07-11 20:58:00,73.3,59.0,29.96,ESE,106,4.0,7.0,61,0.00,,CLR,0.00,VWS V14.01,2013-07-12 01:58:00,
2013-07-11 21:00:00,77.6,57.0,29.96,SE,126,8.0,13.0,49,0.00,,,0.00,VWS V14.01,2013-07-12 02:00:00,
2013-07-11 21:03:00,72.9,59.1,29.96,SE,133,3.0,6.0,62,0.00,,CLR,0.00,VWS V14.01,2013-07-12 02:03:00,
2013-07-11 21:08:00,72.6,58.8,29.96,SE,146,4.0,6.0,62,0.00,,CLR,0.00,VWS V14.01,2013-07-12 02:08:00,
2013-07-11 21:13:00,72.4,58.7,29.96,ESE,120,4.0,6.0,62,0.00,,CLR,0.00,VWS V14.01,2013-07-12 02:13:00,
2013-07-11 21:18:00,72.2,58.9,29.96,SSE,150,5.0,6.0,63,0.00,,CLR,0.00,VWS V14.01,2013-07-12 02:18:00,
2013-07-11 21:23:00,71.9,58.6,29.96,SE,126,4.0,6.0,63,0.00,,CLR,0.00,VWS V14.01,2013-07-12 02:23:00,
2013-07-11 21:28:00,71.7,58.0,29.96,SE,127,5.0,6.0,62,0.00,,CLR,0.00,VWS V14.01,2013-07-12 02:28:00,
2013-07-11 21:30:00,75.3,59.0,29.96,SE,141,4.0,8.0,57,0.00,,,0.00,VWS V14.01,2013-07-12 02:30:00,
2013-07-11 21:34:00,71.6,57.9,29.96,ESE,120,5.0,7.0,62,0.00,,CLR,0.00,VWS V14.01,2013-07-12 02:34:00,
2013-07-11 21:39:00,71.4,58.2,29.97,SE,126,5.0,7.0,63,0.00,,CLR,0.00,VWS V14.01,2013-07-12 02:39:00,
2013-07-11 21:44:00,71.1,58.3,29.97,ESE,117,5.0,7.0,64,0.00,,CLR,0.00,VWS V14.01,2013-07-12 02:44:00,
2013-07-11 21:49:00,70.8,58.5,29.97,ESE,118,4.0,7.0,65,0.00,,CLR,0.00,VWS V14.01,2013-07-12 02:49:00,
2013-07-11 21:54:00,70.4,58.5,29.97,SSE,155,4.0,7.0,66,0.00,,CLR,0.00,VWS V14.01,2013-07-12 02:54:00,
2013-07-11 21:59:00,70.2,58.7,29.97,ESE,119,3.0,7.0,67,0.00,,CLR,0.00,VWS V14.01,2013-07-12 02:59:00,
2013-07-11 22:00:00,73.1,59.3,29.96,SE,138,3.0,7.0,62,0.00,,,0.00,VWS V14.01,2013-07-12 03:00:00,
2013-07-11 22:04:00,70.1,58.7,29.97,SE,132,4.0,5.0,67,0.00,,CLR,0.00,VWS V14.01,2013-07-12 03:04:00,
2013-07-11 22:09:00,69.9,58.5,29.97,SE,143,5.0,6.0,67,0.00,,CLR,0.00,VWS V14.01,2013-07-12 03:09:00,
2013-07-11 22:14:00,69.8,58.4,29.97,SE,135,5.0,7.0,67,0.00,,CLR,0.00,VWS V14.01,2013-07-12 03:14:00,
2013-07-11 22:19:00,69.7,58.7,29.97,SE,141,4.0,7.0,68,0.00,,CLR,0.00,VWS V14.01,2013-07-12 03:19:00,
2013-07-11 22:24:00,69.4,58.8,29.97,SE,138,4.0,7.0,69,0.00,,CLR,0.00,VWS V14.01,2013-07-12 03:24:00,
2013-07-11 22:29:00,69.0,58.8,29.97,SE,131,3.0,7.0,70,0.00,,CLR,0.00,VWS V14.01,2013-07-12 03:29:00,
2013-07-11 22:30:00,71.7,58.0,29.96,SSE,150,4.0,8.0,62,0.00,,,0.00,VWS V14.01,2013-07-12 03:30:00,
2013-07-11 22:34:00,68.8,58.6,29.97,ESE,116,5.0,6.0,70,0.00,,CLR,0.00,VWS V14.01,2013-07-12 03:34:00,
2013-07-11 22:40:00,68.7,58.5,29.97,SSE,148,4.0,7.0,70,0.00,,CLR,0.00,VWS V14.01,2013-07-12 03:40:00,
2013-07-11 22:45:00,68.5,58.7,29.97,SE,136,3.0,7.0,71,0.00,,CLR,0.00,VWS V14.01,2013-07-12 03:45:00,
2013-07-11 22:50:00,68.4,58.6,29.97,SE,136,5.0,7.0,71,0.00,,CLR,0.00,VWS V14.01,2013-07-12 03:50:00,
2013-07-11 22:55:00,68.2,58.5,29.97,SSE,152,4.0,7.0,71,0.00,,CLR,0.00,VWS V14.01,2013-07-12 03:55:00,
2013-07-11 23:00:00,68.1,58.7,29.97,SSE,162,5.0,7.0,72,0.00,,CLR,0.00,VWS V14.01,2013-07-12 04:00:00,
2013-07-11 23:01:00,68.1,58.7,29.97,SSE,148,5.0,5.0,72,0.00,,CLR,0.00,VWS V14.01,2013-07-12 04:01:00,
2013-07-11 23:06:00,68.0,58.7,29.97,SE,131,6.0,7.0,72,0.00,,CLR,0.00,VWS V14.01,2013-07-12 04:06:00,
2013-07-11 23:11:00,68.0,58.7,29.98,SE,134,3.0,7.0,72,0.00,,CLR,0.00,VWS V14.01,2013-07-12 04:11:00,
2013-07-11 23:16:00,68.0,58.7,29.98,SSE,148,7.0,7.0,72,0.00,,CLR,0.00,VWS V14.01,2013-07-12 04:16:00,
2013-07-11 23:21:00,67.8,58.8,29.98,SE,137,6.0,7.0,73,0.00,,CLR,0.00,VWS V14.01,2013-07-12 04:21:00,
2013-07-11 23:26:00,67.4,58.8,29.98,SSE,150,6.0,7.0,74,0.00,,CLR,0.00,VWS V14.01,2013-07-12 04:26:00,
2013-07-11 23:30:00,69.0,58.8,29.97,SE,145,5.0,7.0,70,0.00,,,0.00,VWS V14.01,2013-07-12 04:30:00,
2013-07-11 23:31:00,67.1,58.5,29.98,SE,145,4.0,7.0,74,0.00,,CLR,0.00,VWS V14.01,2013-07-12 04:31:00,
2013-07-11 23:36:00,67.0,58.5,29.98,SE,141,4.0,7.0,74,0.00,,CLR,0.00,VWS V14.01,2013-07-12 04:36:00,
2013-07-11 23:41:00,67.0,58.5,29.98,ESE,123,6.0,7.0,74,0.00,,CLR,0.00,VWS V14.01,2013-07-12 04:41:00,
2013-07-11 23:46:00,66.9,58.3,29.98,ESE,122,6.0,8.0,74,0.00,,CLR,0.00,VWS V14.01,2013-07-12 04:46:00,
2013-07-11 23:51:00,66.8,58.6,29.98,SSE,158,6.0,8.0,75,0.00,,CLR,0.00,VWS V14.01,2013-07-12 04:51:00,
2013-07-11 23:56:00,67.0,58.8,29.98,SE,134,4.0,8.0,75,0.00,,CLR,0.00,VWS V14.01,2013-07-12 04:56:00,